Chicoutimi, Canada
Current Conditions -  °F | °C
As of 6:00 AM on Friday 24 Oct 2014 (Local Time) from CYBG Reporting Station
Scattered Clouds Scattered Clouds  
Wind Chill: 32°   Ceiling: Unl
Heat Index: 32°   Visibility: 15mi
Dew Point: 28°   Wind: 0mph
Humidity: 87%   Direction: NA
Pressure: 29.98"   Gusts: NA
Location:  48.43°N, 71.06°W
Report Text: CYBG 241000Z 00000KT 15SM SCT170 M00/M02 A2998 RMK AC4 SLP161
Loading
Personal Weather Stations






























Interactive Weather Map
Tropical Storm Tracking
New forecast layout! Learn more

10-Day Weather Forecast

Advertisements
Track Severe Weather on mobile